METAR Data
IDs: Format: Raw Decoded Include TAF

Data at: 0116 UTC 25 Mar 2019

KADU 250055Z AUTO 00000KT 2 1/2SM BR OVC006 06/05 A3011 RMK AO2
KADU 250035Z AUTO 00000KT 1 3/4SM BR OVC003 07/05 A3010 RMK AO2
KADU 250015Z AUTO 00000KT 1SM BR OVC003 07/05 A3009 RMK AO2
KADU 242355Z AUTO 00000KT 1 1/4SM BR OVC003 07/05 A3008 RMK AO2
KADU 242335Z AUTO 00000KT 1SM BR OVC003 07/06 A3007 RMK AO2
KADU 242315Z AUTO 00000KT 2SM BR OVC003 07/06 A3007 RMK AO2
KADU 242255Z AUTO 00000KT 3SM BR OVC003 07/06 A3007 RMK AO2
KADU 242235Z AUTO 00000KT 3SM BR OVC003 07/06 A3006 RMK AO2
KADU 242215Z AUTO 00000KT 3SM BR OVC003 07/06 A3005 RMK AO2
KADU 242155Z AUTO 00000KT 2SM BR OVC003 07/05 A3005 RMK AO2
KADU 242135Z AUTO 02006KT 2 1/2SM BR OVC003 07/06 A3005 RMK AO2
KADU 242115Z AUTO 00000KT 2SM BR OVC003 07/05 A3004 RMK AO2
KADU 242055Z AUTO 01012KT 2SM BR OVC003 07/06 A3004 RMK AO2
KADU 242035Z AUTO 01006KT 1 1/2SM UP OVC003 07/06 A3003 RMK AO2
KADU 242015Z AUTO 00000KT 1/4SM FG OVC001 07/05 A3003 RMK AO2
KADU 241955Z AUTO 00000KT 1/4SM FG OVC001 07/05 A3002 RMK AO2
KADU 241935Z AUTO 00000KT 1/4SM FG OVC001 07/05 A3002 RMK AO2
KADU 241915Z AUTO 00000KT 1/2SM FG OVC001 07/06 A3001 RMK AO2
KADU 241855Z AUTO 00000KT 1 1/2SM BR OVC003 07/06 A3001 RMK AO2
KADU 241835Z AUTO 00000KT 1 1/2SM BR OVC003 07/06 A3000 RMK AO2
KADU 241815Z AUTO 00000KT 1 3/4SM BR OVC003 08/06 A2999 RMK AO2
KADU 241755Z AUTO 00000KT 1SM BR OVC001 07/06 A2999 RMK AO2
KADU 241735Z AUTO 00000KT 1SM BR OVC001 07/06 A3000 RMK AO2
KADU 241715Z AUTO 00000KT 1SM BR OVC001 06/05 A3001 RMK AO2
KADU 241655Z AUTO 00000KT 1/2SM FG OVC001 06/05 A3001 RMK AO2
KADU 241635Z AUTO 00000KT 3/4SM DZ OVC001 06/04 A3001 RMK AO2
KADU 241615Z AUTO 00000KT 3/4SM -DZ OVC001 06/04 A3001 RMK AO2
KADU 241555Z AUTO 00000KT 1/2SM -DZ OVC001 06/04 A3000 RMK AO2
KADU 241535Z AUTO 00000KT 1/4SM FG OVC001 06/04 A3000 RMK AO2
KADU 241515Z AUTO 00000KT 1/2SM FG OVC001 06/04 A2999 RMK AO2
KADU 241455Z AUTO 00000KT 1/4SM FG OVC001 06/04 A2999 RMK AO2
KADU 241435Z AUTO 00000KT 1SM BR OVC003 06/05 A2999 RMK AO2
KADU 241415Z AUTO 00000KT 2SM BR OVC003 06/05 A2998 RMK AO2
KADU 241355Z AUTO 00000KT 1 1/4SM BR OVC003 06/04 A2998 RMK AO2
KADU 241335Z AUTO 00000KT 1 1/2SM BR OVC003 06/05 A2998 RMK AO2
KADU 241315Z AUTO 00000KT 1 3/4SM BR OVC003 06/05 A2998 RMK AO2
KADU 241255Z AUTO 00000KT 2 1/2SM -DZ BKN003 OVC011 06/05 A2997 RMK AO2
KADU 241235Z AUTO 00000KT 2 1/2SM DZ SCT005 BKN011 OVC016 06/05 A2996 RMK AO2
KADU 241215Z AUTO 00000KT 5SM BR 06/05 A2996 RMK AO2
KADU 241155Z AUTO 00000KT 5SM BR 06/05 A2996 RMK AO2
KADU 241135Z AUTO 00000KT 4SM BR BKN003 OVC010 06/05 A2996 RMK AO2
KADU 241115Z AUTO 00000KT 4SM BR 06/05 A2996 RMK AO2
KADU 241055Z AUTO 00000KT 4SM BR BKN003 OVC010 06/05 A2996 RMK AO2 P0001
KADU 241035Z AUTO 00000KT 5SM BR SCT003 OVC010 07/06 A2997 RMK AO2 P0001
KADU 241015Z AUTO 00000KT 4SM RA OVC005 07/05 A2996 RMK AO2 P0001
KADU 240955Z AUTO 00000KT 2 1/2SM RA OVC005 07/05 A2996 RMK AO2 P0001
KADU 240935Z AUTO 00000KT 1 3/4SM -RA OVC003 07/05 A2997 RMK AO2
KADU 240915Z AUTO 00000KT 1 1/2SM BR OVC003 06/04 A2997 RMK AO2
KADU 240855Z AUTO 00000KT 2SM BR OVC005 06/04 A2998 RMK AO2
KADU 240835Z AUTO 00000KT 2 1/2SM -DZ OVC005 06/05 A2998 RMK AO2
KADU 240815Z AUTO 00000KT 2SM DZ OVC005 06/04 A2999 RMK AO2
KADU 240755Z AUTO 00000KT 4SM +DZ OVC007 06/04 A2999 RMK AO2
KADU 240735Z AUTO 00000KT 5SM BR OVC011 07/04 A3000 RMK AO2
KADU 240715Z AUTO 00000KT 10SM OVC013 07/04 A3000 RMK AO2
KADU 240655Z AUTO 00000KT 10SM 07/04 A3000 RMK AO2
KADU 240635Z AUTO 00000KT 10SM SCT015 OVC028 07/04 A3000 RMK AO2
KADU 240615Z AUTO 00000KT 10SM 07/04 A3000 RMK AO2
KADU 240555Z AUTO 00000KT 10SM 07/04 A3000 RMK AO2
KADU 240535Z AUTO 00000KT 10SM OVC026 07/04 A3001 RMK AO2
KADU 240515Z AUTO 00000KT 10SM OVC028 07/04 A3002 RMK AO2
KADU 240455Z AUTO 00000KT 10SM OVC028 07/04 A3002 RMK AO2
KADU 240435Z AUTO 00000KT 10SM BKN028 OVC036 07/04 A3002 RMK AO2
KADU 240415Z AUTO 00000KT 10SM OVC034 07/04 A3003 RMK AO2
KADU 240355Z AUTO 00000KT 10SM OVC032 07/04 A3003 RMK AO2
KADU 240335Z AUTO 00000KT 10SM OVC030 07/04 A3004 RMK AO2
KADU 240315Z AUTO 00000KT 10SM OVC030 07/04 A3005 RMK AO2
KADU 240255Z AUTO 00000KT 10SM OVC030 07/04 A3005 RMK AO2
KADU 240235Z AUTO 00000KT 10SM OVC032 07/04 A3005 RMK AO2
KADU 240215Z AUTO 00000KT 10SM OVC034 07/04 A3004 RMK AO2
KADU 240155Z AUTO 00000KT 10SM OVC036 08/04 A3004 RMK AO2
KADU 240135Z AUTO 00000KT 10SM BKN036 OVC050 08/04 A3005 RMK AO2
KADU 240115Z AUTO 00000KT 10SM SCT038 OVC050 08/04 A3005 RMK AO2
KADU 240055Z AUTO 00000KT 10SM BKN040 OVC050 08/04 A3005 RMK AO2
KADU 240035Z AUTO 00000KT 10SM BKN044 OVC050 08/04 A3006 RMK AO2
KADU 240015Z AUTO 00000KT 10SM OVC050 08/04 A3006 RMK AO2
KADU 232355Z AUTO 00000KT 10SM DZ OVC055 08/04 A3007 RMK AO2
KADU 232335Z AUTO 00000KT 10SM -RA OVC055 09/04 A3007 RMK AO2
KADU 232315Z AUTO 00000KT 10SM RA OVC055 09/04 A3007 RMK AO2
KADU 232255Z AUTO 00000KT 10SM BKN065 OVC075 10/03 A3007 RMK AO2
KADU 232235Z AUTO 00000KT 10SM SCT075 BKN085 11/03 A3006 RMK AO2
KADU 232215Z AUTO 00000KT 10SM BKN085 11/03 A3007 RMK AO2
KADU 232155Z AUTO 00000KT 10SM OVC075 10/03 A3008 RMK AO2
KADU 232135Z AUTO 00000KT 10SM BKN075 BKN090 10/03 A3008 RMK AO2
KADU 232115Z AUTO 00000KT 10SM BKN090 11/03 A3008 RMK AO2
KADU 232055Z AUTO 00000KT 10SM SCT090 11/03 A3008 RMK AO2
KADU 232035Z AUTO 00000KT 10SM CLR 11/03 A3009 RMK AO2
KADU 232015Z AUTO 00000KT 10SM SCT080 11/03 A3009 RMK AO2
KADU 231955Z AUTO 00000KT 10SM CLR 11/02 A3009 RMK AO2
KADU 231935Z AUTO 00000KT 10SM SCT100 11/03 A3010 RMK AO2
KADU 231915Z AUTO 00000KT 10SM DZ SCT100 11/03 A3010 RMK AO2
KADU 231855Z AUTO 00000KT 10SM SCT080 11/02 A3012 RMK AO2
KADU 231835Z AUTO 00000KT 10SM -RA SCT065 SCT080 11/02 A3012 RMK AO2
KADU 231815Z AUTO 00000KT 10SM BKN065 11/02 A3014 RMK AO2
KADU 231755Z AUTO 00000KT 10SM DZ SCT041 SCT046 SCT065 10/03 A3014 RMK AO2
KADU 231735Z AUTO 00000KT 10SM CLR 11/01 A3015 RMK AO2
KADU 231715Z AUTO 00000KT 10SM CLR 11/01 A3016 RMK AO2
KADU 231655Z AUTO 00000KT 10SM CLR 11/02 A3016 RMK AO2
KADU 231635Z AUTO 00000KT 10SM CLR 11/02 A3016 RMK AO2
KADU 231615Z AUTO 00000KT 10SM CLR 10/02 A3017 RMK AO2
KADU 231555Z AUTO 00000KT 10SM CLR 10/02 A3017 RMK AO2
KADU 231535Z AUTO 00000KT 10SM CLR 09/02 A3017 RMK AO2
KADU 231515Z AUTO 00000KT 10SM CLR 08/02 A3017 RMK AO2
KADU 231455Z AUTO 00000KT 10SM CLR 07/02 A3017 RMK AO2
KADU 231435Z AUTO 00000KT 10SM CLR 06/02 A3017 RMK AO2
KADU 231415Z AUTO 00000KT 10SM CLR 04/01 A3018 RMK AO2
KADU 231355Z AUTO 00000KT 10SM CLR 03/00 A3018 RMK AO2
KADU 231335Z AUTO 00000KT 10SM CLR 02/M01 A3018 RMK AO2